This site, now in its 15th season, is a labour of love and fun from one of Ottawa's most avid time trialists and number crunchers. It adheres to and is permitted by the laws of Canada, promotes the objectives of every bicycle club whose results are shown, and is donated free of charge by myself for your enjoyment and usage. If you would like results from series you ride in to be shown here, give me (celia@drmath.ca) a shout!


Index Page
ATT OTT WTT AATT CFCTT VVVTT
Help resultformat:
Case-sensitive

OBC Open TT Series - 2009-Sep-03 - 15km (Rockliffe Pkwy) (EvtFactor = 0.9781)

Weather (18:00): Sunny. Temp.: 25C, Humidity: 50%, Dew Point: 14C, Wind: SW 13km/h, Pressure: 101.8kPa, Vis: 24km, Humidex: 28.
Weather (19:00): Sunny. Temp.: 23C, Humidity: 55%, Dew Point: 14C, Wind: SW 8km/h, Pressure: 101.8kPa, Vis: 24km, Humidex: 26.
Weather (20:00): Mainly Clear. Temp.: 22C, Humidity: 59%, Dew Point: 13C, Wind: SW 8km/h, Pressure: 101.8kPa, Vis: 24km, Humidex: *.

Send photos with description (when/where/what) of yourself on or off of bike to celia@drmath.ca

These results were first posted on the OBC site circa 22:00 on 2009-Sep-03 (with 2 fixes made 2009-Sep-07 by 20:00) and are available here for your added pleasure and analysis.
We are hoping that the OBC Board consults a lawyer and quickly recants their latest foolish transgression against me (expulsion, sheeesh ) before they get into legal trouble!


Lots of people and lots of great times! At the top, Aaron Fillion set a new course record, while Sue Schlatter tied her PB which sits 2nd overall in the female 15km course rankings. There were two all time category bests tonight, Aaron's mark for the 30-39 year old Males and Hermann Kerckhoff's time for the 70-79 year old males. For the rest, 33 bettered their previous database 15km best, while 48 improved upon their previous 2009 OTT 15km best.

 
 

BESTS?
 
Y 1 Fillion, Aaron  OBC 18:21 49.046 1/89 VAM 1/18 1.0697
Y 2 Nash, Michael  OBC/RWR 18:54 47.619 2/89 VBM 1/21 1.0213
3 Amos, Ron  OBC/RWR 19:20 46.552 3/89 VBM 2/21 1.0473
4 Rendall, Glen  RWR 19:21 46.512 4/89 VBM 3/21 0.9949
5 van den Ham, Douglas  OBC/EMD 19:36 45.918 5/89 VAM 2/18 0.9847
6 Datars, Paul  OBC/RWR 20:01 44.963 6/89 VCM 1/18 0.9460
7 Martel, Brad RWR 20:04 44.850 7/89 VBM 4/21 0.9631
8 Sudac, Rick  OBC/RWR 20:10 44.628 8/89 VDM 1/4 0.9877
Y 9 Schlatter, Sue  CYC 20:13 44.518 9/89 VBF 1/8 1.0000
10 Hamilton, Peter OBC 20:20 44.262 10/89 VBM 5/21 0.9732
11 Parniak, Robert  --- 20:23 44.154 11/89 VAM 3/18 1.0247
12 Tsilemos, Jim RWR 20:28 43.974 12/89 VBM 6/21 1.0073
13 Cameron, Allen  OBC/RWR 20:49 43.235 13/89 VCM 2/18 1.0739
14 Ferguson, James OBC 20:55 43.028 14/89 VBM 7/21 0.9415
15 Diaz, Rodrigo  OBC/EUR 21:01 42.823 15/89 VAM 4/18 1.0385
16 Armstrong, Brian OBC 21:10 42.520 16/89 VBM 8/21 1.0456
Budgell, Glen  OBC 21:10 42.520 16/89 VCM 3/18 0.9953
18 Stachon, David --- 21:12 42.453 18/89 VAM 5/18  
19 Farish, Neil  OBC/RWR 21:17 42.287 19/89 VCM 4/18 1.0142
20 Morvan, Jacques  OBC 21:19 42.220 20/89 VDM 2/4 0.9675
21 Zappe, Erich RWR 21:30 41.860 21/89 VBM 9/21 0.9677
22 McKay, Allison  OBC/RDO 21:32 41.796 22/89 VBF 2/8 1.0116
23 Kruger, Andrew  ULT 21:34 41.731 23/89 VAM 6/18 1.0140
24 Chedore, Paul ULT 21:40 41.538 24/89 VAM 7/18 1.0256
25 Burge, Craig  CYC 21:43 41.443 25/89 VBM 10/21 0.9216
26 Spooner, Tricia  --- 21:49 41.253 26/89 VAF 1/3 1.0046
27 Matte, Sophie  CYC 21:50 41.221 27/89 VAF 2/3 1.0023
28 Hoover, Doug OBC 21:54 41.096 28/89 VCM 5/18 1.1786
29 Somogyi, Michel OBC 22:01 40.878 29/89 VAM 8/18 1.4935
30 Moerman, Bram  OBC 22:02 40.847 30/89 VDM 3/4 0.9597
31 Voyer, Christian OBC 22:07 40.693 31/89 VAM 9/18 1.0717
32 Bilenkey, David OBC/EUR 22:08 40.663 32/89 VBM 11/21 1.1393
Y 33 Kerckhoff, Hermann  RWR 22:10 40.602 33/89 VEM 1/2 1.0274
Posthuma, Hans  OBC 22:10 40.602 33/89 VCM 6/18 0.9933
35 DeVidi, Robert  OBC 22:21 40.268 35/89 VBM 12/21 0.9668
Revesz, Erika  OBC 22:21 40.268 35/89 VCF 1/4 1.0408
Trafford, Brian OBC 22:21 40.268 35/89 JUM 1/1 1.1017
38 Campbell, Greg OBC 22:26 40.119 38/89 VAM 10/18 1.0614
McCutcheon, Drew OBC 22:26 40.119 38/89 VAM 10/18 0.9583
40 Konov, Sergei OBC 22:31 39.970 40/89 VAM 12/18 0.9455
Robitaille, Brian  OBC 22:31 39.970 40/89 VBM 13/21 1.0565
42 Hess, Detlef OBC 22:40 39.706 42/89 VCM 7/18 0.9480
43 Gagnon, Alexandre  OBC 22:48 39.474 43/89 SEM 1/3 1.0536
44 Reissner, Leslie OBC 22:55 39.273 44/89 VCM 8/18 0.9719
45 Blais, Bob --- 22:56 39.244 45/89 VCM 9/18 1.0782
46 Langevin, Roger  OBC 22:58 39.187 46/89 VAM 13/18 0.9891
47 Marleau, Dianne  OBC/RWR 22:59 39.159 47/89 VBF 3/8 1.0599
48 Leslie, Brian OBC 23:01 39.102 48/89 VAM 14/18 1.1033
49 Dorego, Jean-Louis OBC 23:04 39.017 49/89 VCM 10/18 0.9870
50 Lage, Rick OBC 23:05 38.989 50/89 VBM 14/21 1.0846
51 Burdett, Avery  OBC 23:07 38.933 51/89 VEM 2/2 0.8997
52 Burge, Larry  OBC 23:11 38.821 52/89 VBM 15/21 1.0349
53 Blagdon, Wendy  CYC 23:17 38.654 53/89 VBF 4/8 0.9681
54 Simard, Martin OBC 23:30 38.298 54/89 VCM 11/18 1.0898
55 Medaglia, Tyler OBC 23:31 38.271 55/89 SEM 2/3 0.9458
56 Pazdzior, Ellen  OBC 23:32 38.244 56/89 VCF 2/4 1.1284
Yaeger, Dave  OBC 23:32 38.244 56/89 VCM 12/18 1.0409
58 Acton, Mark RWR 23:39 38.055 58/89 VBM 16/21 1.0758
59 Wilkinson, Ross OBC 23:40 38.028 59/89 VBM 17/21 0.8310
60 Coldwell, Michael  ABC 23:42 37.975 60/89 VBM 18/21 0.9729
61 Momtahan, Parham  OBC 23:49 37.789 61/89 VCM 13/18 1.0448
62 Ingham, Alison  OBC/RWR 23:50 37.762 62/89 VBF 5/8 1.0190
Pelletier, Luc OBC 23:50 37.762 62/89 VAM 15/18 1.1403
64 McKay, Andrea  RDO 23:57 37.578 64/89 VBF 6/8 1.0445
65 Imbrogno, Giorgio  OBC 23:58 37.552 65/89 VDM 4/4 1.0316
66 Monast-Dore, Maxime OBC 24:00 37.500 66/89 MIM 1/3 1.1761
67 Janusauskas, Vytas  OBC 24:05 37.370 67/89 VCM 14/18 1.0104
68 Austen, Ian  OBC 24:07 37.319 68/89 VCM 15/18 1.0357
69 Breton, Bernard OBC 24:27 36.810 69/89 VAM 16/18  
70 Austen, Timothy OBC 24:31 36.710 70/89 MIM 2/3  
71 Gagnon, Jules OBC 24:49 36.266 71/89 VCM 16/18 1.0122
72 Couturier-Lamy, Felix OBC 24:52 36.193 72/89 MIM 3/3 0.9761
Plouffe, Yves OBC 24:52 36.193 72/89 VBM 19/21 1.0202
74 Datars, Sally OBC 24:54 36.145 74/89 VBF 7/8 0.9881
75 McLaughlin, Brian OBC 24:57 36.072 75/89 VCM 17/18 1.0345
76 McInnis, Celia  OBC/ABC 25:00 36.000 76/89 VCF 3/4 0.9450
77 Ferguson, Simon OBC 25:21 35.503 77/89 VAM 17/18  
78 Plouffe, Jean-Pierre --- 25:32 35.248 78/89 VCM 18/18 1.1075
79 Budd, Daniel OBC 25:39 35.088 79/89 VBM 20/21 0.8538
Gray, Leona  OBC 25:39 35.088 79/89 VDF 1/1 0.9222
81 Gee, Derek  OBC 25:49 34.861 81/89 PWM 1/1 0.9923
82 McLaren, Louise  OBC 25:56 34.704 82/89 VBF 8/8 0.9923
83 Bonhomme, Ariane --- 25:58 34.660 83/89 MIF 1/1 1.0729
84 Konantz, Patricia  OBC 26:02 34.571 84/89 VCF 4/4  
85 Nesdoly, Nina  OBC 26:06 34.483 85/89 CAF 1/1 0.9866
86 van Zandvoort, Mike OBC 26:30 33.962 86/89 SEM 3/3 0.8396
87 Johnson, Laura  OBC/CYF 26:47 33.603 87/89 VAF 3/3 1.2520
88 Crowe, Sean OBC 27:19 32.947 88/89 VBM 21/21  
89 LeBrun, Robert OBC 32:02 28.096 89/89 VAM 18/18 1.3920
 
Average Speed of all of the above 89 finishes (1335km in 34:04:56):39.170
>>>Average of the Average Speeds for these 89 finishes39.503<<<
 

The number of data records shown above is 89
The server processing of your query took: 0 wallclock secs ( 0.09 usr + 0.00 sys = 0.09 CPU)

Thanks to our Helpers: Jon Gee, Jim Glover, Gunter Hauschildt, Mike Henry, Alex McKnight, Erika Revesz, Craig Senior.

     


Apr 10 (Good Friday)
May 5 (10km) May 7 May 12 (10km) May 14 May 19 May 19 (10km) May 21 May 26 May 26 (10km) May 28 May 31 (40km)
Jun 2 Jun 2 Jun 4 Jun 9 Jun 9 Jun 11 Jun 16 Jun 16 Jun 18 Jun 23 Jun 23 Jun 25 Jun 30 Jun 30
Jul 2 Jul 5 (40km) Jul 7 Jul 7 (10km) Jul 9 (10km) Jul 12 (40km) Jul 14 Jul 14 (10km) Jul 16 (10km) Jul 21 Jul 21 (10km) Jul 23 Jul 23 (10km) Jul 28 Jul 28 (10km) Jul 30 (10km)
Aug 4 (cancelled - thunder storm) Aug 4 (10km) (cancelled - thunder storm) Aug 6 (10km) Aug 9 (40km) Aug 11 Aug 11 (10km) Aug 13 (10km) Aug 18 Aug 18 (10km) Aug 20 (10km) (cancelled - construction) Aug 25 Aug 25 (Invitational) Aug 27
Sep 1
  Sep 3  
Sep 8 Sep 10 Sep 13 (40km) Sep 15 Sep 22 Sep 29

OTT Rankings
Best       Best by category
WTT Rankings for OBC Members
4 Best Speeds     4 Best Speeds by category
OBC Member Best Three 15km Rankings
Overall     by category     age-Hcap Female   age-Hcap Male
OBC BAR Ranking
Overall     by category     Rider "Consistency-Graph"
ABC BAR Ranking
Overall     by category     Rider "Consistency-Graph"
Other years
TT Calculator All TT People All TT events
ABC Home VVV Home
CKAP GOLD MEDAL
Other Links

Note: OTT data from 2003 through 2006-Apr-14 and 2007-Apr-06-? and WTT from 2008-? is taken from the official OBC site.

Please send your comments and suggestions to: Celia McInnis
Copyright © 1998-2011 Celia McInnis. All rights reserved. Links are welcomed.